Terminal Aerodrome Forecast
Issued by NWS

Home | Current Version | Previous Version | Text Only | Print | Product List | Glossary On
Versions: 1 2 3 4 5 6 7 8 9 10 11 12 13 14 15 16
000
FTUS46 KSEW 210524
TAFHQM
TAF
KHQM 210524Z 2106/2206 03007KT P6SM FEW090
     FM211700 08004KT P6SM BKN100 OVC200
     FM212100 16005KT P6SM SCT025 OVC050
     FM212300 VRB04KT 4SM -SN BR OVC015=

USA.gov is the U.S. government's official web portal to all federal, state and local government web resources and services.